Time;durP1;ratioP1;P1;durP2;ratioP2;P2;SDS_P1;SDS_P2;PMS_P1;PMS_P2;Temp;Humidity;BMP_temperature;BMP_pressure;BME280_temperature;BME280_humidity;BME280_pressure;Samples;Min_cycle;Max_cycle;Signal;HPM_P1;HPM_P2
2022/01/11 00:00:25;;;;;;;10.98;8.48;;;;;;;15.13;44.49;94072.91;4944595;28;20071;-83
2022/01/11 00:02:52;;;;;;;11.43;8.52;;;;;;;15.13;44.30;94070.91;4936805;28;20041;-84
2022/01/11 00:05:32;;;;;;;11.35;8.25;;;;;;;15.15;44.33;94068.47;4920372;28;20035;-85
2022/01/11 00:07:57;;;;;;;11.15;8.07;;;;;;;15.15;44.12;94070.44;4924780;28;20153;-84
2022/01/11 00:10:28;;;;;;;11.73;8.23;;;;;;;15.14;44.31;94066.22;4936065;28;20495;-87
2022/01/11 00:12:57;;;;;;;11.55;8.52;;;;;;;15.17;44.04;94076.16;4953624;28;20046;-84
2022/01/11 00:15:22;;;;;;;10.88;7.97;;;;;;;15.13;44.27;94076.38;4920420;28;20787;-87
2022/01/11 00:17:48;;;;;;;11.18;7.43;;;;;;;15.15;44.25;94075.91;4936734;28;20030;-83
2022/01/11 00:20:15;;;;;;;11.40;7.85;;;;;;;15.15;44.20;94073.94;4935997;28;20600;-83
2022/01/11 00:24:26;;;;;;;9.43;7.28;;;;;;;15.07;44.49;94076.28;4921240;28;20058;-83
2022/01/11 00:25:28;;;;;;;9.98;7.28;;;;;;;15.13;44.28;94084.53;4968396;28;20442;-83
2022/01/11 00:27:54;;;;;;;8.80;7.50;;;;;;;15.10;44.52;94082.75;4920661;28;20034;-85
2022/01/11 00:30:20;;;;;;;9.02;6.80;;;;;;;15.14;44.18;94083.31;4935627;28;20399;-84
2022/01/11 00:32:51;;;;;;;10.65;7.38;;;;;;;15.16;43.92;94085.53;4948740;28;20044;-84
2022/01/11 00:35:21;;;;;;;;;;;;;;;15.13;44.01;94073.66;4918493;28;20119;-84
2022/01/11 00:37:47;;;;;;;9.27;6.78;;;;;;;15.14;44.28;94091.50;4933702;29;20004;-88
2022/01/11 00:40:12;;;;;;;11.05;6.93;;;;;;;15.11;44.35;94089.72;4948284;28;20047;-87
2022/01/11 00:42:38;;;;;;;8.45;6.93;;;;;;;15.15;44.04;94090.25;4949406;29;20399;-83
2022/01/11 00:45:05;;;;;;;9.48;6.72;;;;;;;15.16;44.18;94097.19;4933085;28;20454;-87
2022/01/11 00:47:30;;;;;;;9.63;6.68;;;;;;;15.15;44.31;94101.16;4933269;28;20039;-87
2022/01/11 00:49:57;;;;;;;8.93;6.43;;;;;;;15.09;44.16;94103.78;4948601;29;20042;-83
2022/01/11 00:52:22;;;;;;;12.27;7.07;;;;;;;15.06;44.22;94112.16;4950089;28;20051;-85
2022/01/11 00:54:47;;;;;;;9.60;7.35;;;;;;;15.12;43.98;94104.06;4932947;28;20043;-84
2022/01/11 00:57:13;;;;;;;8.80;6.47;;;;;;;15.15;44.39;94108.56;4932733;28;20062;-83
2022/01/11 00:59:38;;;;;;;12.05;6.65;;;;;;;15.11;44.30;94114.22;4946086;28;20040;-88
2022/01/11 01:02:04;;;;;;;7.03;5.80;;;;;;;15.04;44.31;94107.16;4919169;28;20043;-83
2022/01/11 01:04:29;;;;;;;11.20;6.50;;;;;;;15.09;44.11;94119.38;4949296;28;20529;-84
2022/01/11 01:06:55;;;;;;;8.93;6.50;;;;;;;15.06;44.50;94120.31;4916822;29;20047;-84
2022/01/11 01:09:20;;;;;;;8.90;6.30;;;;;;;15.14;44.29;94115.25;4916105;28;20043;-83
2022/01/11 01:11:46;;;;;;;8.35;6.40;;;;;;;15.11;44.13;94119.66;4948803;28;20740;-84
2022/01/11 01:14:12;;;;;;;8.18;6.25;;;;;;;15.10;44.28;94115.44;4917051;28;20035;-83
2022/01/11 01:16:38;;;;;;;7.20;5.75;;;;;;;15.09;44.23;94125.56;4917088;29;20049;-83
2022/01/11 01:19:03;;;;;;;9.90;6.25;;;;;;;15.11;44.19;94130.56;4948165;28;20086;-84
2022/01/11 01:21:36;;;;;;;7.50;6.03;;;;;;;15.09;44.14;94122.84;4932685;28;20043;-85
2022/01/11 01:24:01;;;;;;;6.20;5.60;;;;;;;15.13;44.02;94122.66;4948821;28;20404;-83
2022/01/11 01:26:27;;;;;;;8.50;5.82;;;;;;;15.09;44.18;94138.44;4932594;28;20079;-88
2022/01/11 01:28:53;;;;;;;5.65;5.00;;;;;;;15.09;44.01;94138.44;4951686;28;20039;-83
2022/01/11 01:31:18;;;;;;;6.70;5.03;;;;;;;15.10;44.28;94131.78;4951867;28;20039;-87
2022/01/11 01:33:45;;;;;;;7.72;5.32;;;;;;;15.12;44.03;94139.47;4934982;29;20524;-84
2022/01/11 01:36:11;;;;;;;6.68;4.85;;;;;;;15.08;43.90;94137.69;4918812;28;20051;-83
2022/01/11 01:38:37;;;;;;;7.43;5.30;;;;;;;15.11;43.97;94136.00;4935149;28;20047;-86
2022/01/11 01:41:12;;;;;;;7.90;5.47;;;;;;;15.08;43.82;94145.84;4918924;28;20086;-84
2022/01/11 01:43:37;;;;;;;7.20;5.43;;;;;;;15.14;44.08;94143.22;4921304;29;20483;-84
2022/01/11 01:46:03;;;;;;;6.60;4.85;;;;;;;15.09;44.13;94141.91;4950247;28;20027;-85
2022/01/11 01:48:29;;;;;;;8.45;5.70;;;;;;;15.14;43.95;94143.22;4935097;28;20032;-84
2022/01/11 01:50:54;;;;;;;7.53;4.63;;;;;;;15.12;44.11;94142.94;4934744;28;20031;-85
2022/01/11 01:53:20;;;;;;;7.88;5.13;;;;;;;15.17;43.69;94147.72;4949903;28;20481;-89
2022/01/11 01:55:46;;;;;;;8.15;5.45;;;;;;;15.13;43.92;94154.59;4918903;29;20732;-84
2022/01/11 01:58:11;;;;;;;6.82;4.95;;;;;;;15.12;43.68;94153.84;4950527;28;20035;-87
2022/01/11 02:00:40;;;;;;;7.25;5.22;;;;;;;15.09;43.75;94150.09;4906844;29;20133;-83
2022/01/11 02:03:10;;;;;;;7.20;5.20;;;;;;;15.14;44.08;94161.53;4929374;28;20047;-84
2022/01/11 02:05:35;;;;;;;6.40;5.10;;;;;;;15.12;44.09;94162.00;4919098;29;20046;-85
2022/01/11 02:08:00;;;;;;;6.78;4.63;;;;;;;15.13;44.02;94162.75;4949977;29;20051;-83
2022/01/11 02:10:26;;;;;;;6.88;4.95;;;;;;;15.14;44.06;94156.09;4948467;28;20131;-83
2022/01/11 02:12:51;;;;;;;8.10;4.63;;;;;;;15.07;44.04;94168.09;4949124;28;20114;-87
2022/01/11 02:15:17;;;;;;;5.82;4.45;;;;;;;15.11;43.79;94165.94;4948517;28;20498;-88
2022/01/11 02:17:42;;;;;;;5.25;4.20;;;;;;;15.09;43.97;94163.69;4934045;28;20035;-84
2022/01/11 02:20:12;;;;;;;6.93;4.72;;;;;;;15.09;43.87;94169.13;4917760;28;20043;-85
2022/01/11 02:22:37;;;;;;;6.38;3.92;;;;;;;15.16;43.51;94175.41;4950096;28;20035;-84
2022/01/11 02:25:03;;;;;;;5.38;4.25;;;;;;;15.13;43.79;94176.38;4933788;28;20466;-85
2022/01/11 02:27:28;;;;;;;5.93;4.07;;;;;;;15.08;43.83;94183.22;4951995;28;20035;-84
2022/01/11 02:29:54;;;;;;;5.03;4.10;;;;;;;15.11;43.63;94182.28;4934179;29;20078;-87
2022/01/11 02:32:19;;;;;;;6.20;4.20;;;;;;;15.13;43.88;94181.81;4877380;28;1169476;-88
2022/01/11 02:34:45;;;;;;;5.30;4.05;;;;;;;15.11;43.92;94184.25;4935505;29;20496;-88
2022/01/11 02:37:10;;;;;;;5.60;4.40;;;;;;;15.09;43.94;94185.47;4934709;28;20073;-83
2022/01/11 02:39:36;;;;;;;5.65;4.22;;;;;;;15.09;43.72;94180.03;4935397;28;20494;-85
2022/01/11 02:42:02;;;;;;;4.75;3.78;;;;;;;15.07;43.96;94190.66;4934598;28;20082;-84
2022/01/11 02:44:27;;;;;;;5.05;3.95;;;;;;;15.05;43.97;94178.72;4934704;28;20046;-89
2022/01/11 02:46:52;;;;;;;5.40;4.10;;;;;;;15.08;43.98;94188.66;4952335;28;20520;-87
2022/01/11 02:49:18;;;;;;;5.05;3.83;;;;;;;15.09;43.68;94188.19;4934188;28;20059;-86
2022/01/11 02:51:43;;;;;;;4.13;3.45;;;;;;;15.07;43.88;94185.19;4935066;28;20063;-87
2022/01/11 02:54:11;;;;;;;4.28;3.63;;;;;;;15.12;43.98;94183.78;4917883;28;20035;-86
2022/01/11 02:56:37;;;;;;;4.57;3.60;;;;;;;15.12;43.69;94188.50;4950245;28;20118;-83
2022/01/11 02:59:02;;;;;;;4.57;3.47;;;;;;;15.10;43.84;94183.50;4934303;28;20037;-83
2022/01/11 03:01:28;;;;;;;4.78;3.88;;;;;;;15.12;43.87;94183.78;4934012;28;20866;-84
2022/01/11 03:03:54;;;;;;;4.78;3.67;;;;;;;15.12;43.92;94175.63;4934753;28;20039;-83
2022/01/11 03:06:20;;;;;;;4.95;3.97;;;;;;;15.06;43.96;94180.97;4933744;28;20043;-86
2022/01/11 03:08:46;;;;;;;3.88;3.38;;;;;;;15.06;43.85;94183.69;4950399;28;20074;-86
2022/01/11 03:11:13;;;;;;;3.97;3.50;;;;;;;15.09;43.82;94179.28;4950081;28;20051;-86
2022/01/11 03:13:40;;;;;;;4.95;3.47;;;;;;;15.06;43.61;94178.25;4918608;29;20498;-85
2022/01/11 03:16:06;;;;;;;5.55;3.55;;;;;;;15.04;43.66;94182.66;4934110;28;20047;-83
2022/01/11 03:18:31;;;;;;;4.57;3.70;;;;;;;15.06;43.72;94185.66;4950190;28;20076;-88
2022/01/11 03:20:56;;;;;;;4.00;3.10;;;;;;;15.07;43.82;94187.16;4950527;28;20035;-87
2022/01/11 03:23:22;;;;;;;3.90;3.50;;;;;;;15.07;43.78;94185.19;4933515;28;20142;-83
2022/01/11 03:25:48;;;;;;;4.57;3.63;;;;;;;15.05;43.75;94186.88;4934392;28;20383;-83
2022/01/11 03:28:13;;;;;;;5.22;3.50;;;;;;;15.02;43.75;94187.81;4949514;28;20036;-87
2022/01/11 03:30:38;;;;;;;3.72;3.00;;;;;;;15.10;43.54;94183.50;4950123;28;20043;-86
2022/01/11 03:33:07;;;;;;;3.10;2.75;;;;;;;15.06;43.93;94180.97;4933177;28;20067;-84
2022/01/11 03:35:32;;;;;;;4.80;3.38;;;;;;;15.10;43.60;94186.22;4950386;28;20565;-87
2022/01/11 03:37:58;;;;;;;5.75;3.65;;;;;;;15.08;43.83;94189.41;4949620;28;20039;-83
2022/01/11 03:40:24;;;;;;;3.67;2.70;;;;;;;15.01;43.95;94194.47;4933209;28;20066;-89
2022/01/11 03:42:49;;;;;;;6.13;3.17;;;;;;;15.05;43.75;94198.53;4934371;28;20043;-84
2022/01/11 03:45:15;;;;;;;4.85;3.80;;;;;;;15.03;43.82;94192.78;4933411;28;20587;-85
2022/01/11 03:47:41;;;;;;;4.68;3.30;;;;;;;15.07;43.50;94198.81;4949992;28;20408;-86
2022/01/11 03:50:07;;;;;;;3.53;3.08;;;;;;;15.08;43.58;94189.41;4917074;28;20039;-85
2022/01/11 03:52:33;;;;;;;3.20;2.70;;;;;;;15.07;43.55;94189.88;4948885;28;20130;-85
2022/01/11 03:57:24;;;;;;;4.15;3.40;;;;;;;15.09;43.89;94199.09;4948845;28;20542;-83
2022/01/11 03:59:50;;;;;;;4.32;2.72;;;;;;;15.05;43.72;94186.88;4933758;28;20067;-83
2022/01/11 04:02:15;;;;;;;4.35;3.10;;;;;;;15.08;43.71;94200.31;4932692;28;20055;-89
2022/01/11 04:04:41;;;;;;;3.72;2.88;;;;;;;15.08;43.37;94194.88;4950015;28;20078;-85
2022/01/11 04:07:06;;;;;;;4.80;3.17;;;;;;;15.12;43.21;94202.09;4948798;28;20430;-83
2022/01/11 04:09:32;;;;;;;4.03;3.35;;;;;;;15.13;43.58;94207.09;4949051;28;20039;-85
2022/01/11 04:11:57;;;;;;;3.85;2.90;;;;;;;15.09;43.52;94198.34;4933439;28;20031;-83
2022/01/11 04:14:25;;;;;;;3.20;2.70;;;;;;;15.01;43.65;94203.41;4932290;28;20467;-85
2022/01/11 04:16:51;;;;;;;3.80;2.83;;;;;;;15.08;43.40;94207.72;4949529;28;20039;-88
2022/01/11 04:19:17;;;;;;;4.05;2.90;;;;;;;15.04;43.56;94207.16;4933122;28;20070;-87
2022/01/11 04:21:42;;;;;;;4.72;2.90;;;;;;;15.08;43.12;94208.47;4931725;29;20511;-86
2022/01/11 04:24:11;;;;;;;4.03;3.25;;;;;;;15.05;43.61;94208.66;4931381;29;20620;-86
2022/01/11 04:26:36;;;;;;;7.88;3.28;;;;;;;15.09;43.28;94218.16;4931685;29;20066;-87
2022/01/11 04:29:01;;;;;;;3.78;2.97;;;;;;;15.05;43.17;94217.59;4900053;29;20415;-86
2022/01/11 04:31:27;;;;;;;3.33;2.53;;;;;;;15.00;43.22;94220.22;4915443;29;20039;-87
2022/01/11 04:33:52;;;;;;;3.72;2.80;;;;;;;15.03;43.65;94224.72;4931233;29;20051;-84
2022/01/11 04:36:18;;;;;;;3.08;2.55;;;;;;;15.07;43.40;94222.56;4899789;29;20044;-85
2022/01/11 04:38:43;;;;;;;5.35;2.85;;;;;;;15.08;43.51;94222.09;4931611;29;20051;-87
2022/01/11 04:41:08;;;;;;;3.97;2.72;;;;;;;15.06;43.59;94224.53;4931126;29;20043;-83
2022/01/11 04:43:34;;;;;;;3.88;2.75;;;;;;;15.05;43.41;94233.94;4915606;29;20090;-83
2022/01/11 04:45:59;;;;;;;3.45;2.60;;;;;;;15.06;43.62;94235.44;4900408;29;20051;-84
2022/01/11 04:48:25;;;;;;;3.03;2.28;;;;;;;15.09;43.65;94242.66;4930411;29;20035;-84
2022/01/11 04:50:50;;;;;;;2.88;2.47;;;;;;;15.08;43.68;94243.13;4890320;29;20535;-87
2022/01/11 04:53:16;;;;;;;3.40;2.45;;;;;;;15.11;43.44;94247.66;4844938;29;20037;-83
2022/01/11 04:55:41;;;;;;;2.63;2.35;;;;;;;15.02;43.68;94255.88;4841144;29;20048;-84
2022/01/11 04:58:07;;;;;;;3.22;2.40;;;;;;;15.05;43.57;94254.97;4840367;29;20049;-86
2022/01/11 05:00:32;;;;;;;2.78;2.17;;;;;;;15.09;43.52;94252.81;4840495;29;20060;-84
2022/01/11 05:02:59;;;;;;;2.95;2.30;;;;;;;15.09;43.58;94245.38;4856367;29;20048;-83
2022/01/11 05:05:26;;;;;;;2.72;2.15;;;;;;;15.03;43.59;94255.41;4859816;29;20124;-84
2022/01/11 05:07:51;;;;;;;2.58;2.10;;;;;;;14.99;43.59;94260.28;4829847;29;20083;-88
2022/01/11 05:10:17;;;;;;;3.30;2.30;;;;;;;15.04;43.33;94248.75;4843876;29;20041;-85
2022/01/11 05:12:42;;;;;;;2.60;2.08;;;;;;;15.07;43.28;94255.25;4860156;29;20515;-85
2022/01/11 05:15:11;;;;;;;2.50;2.28;;;;;;;15.06;43.31;94264.63;4874579;29;20044;-83
2022/01/11 05:17:37;;;;;;;2.80;2.08;;;;;;;15.05;43.25;94261.16;4845415;29;20033;-87
2022/01/11 05:20:03;;;;;;;3.28;2.33;;;;;;;15.04;43.42;94265.09;4828913;29;20085;-86
2022/01/11 05:22:29;;;;;;;3.22;1.80;;;;;;;15.09;43.38;94261.72;4872542;29;20174;-84
2022/01/11 05:24:57;;;;;;;2.75;2.40;;;;;;;15.09;43.06;94266.41;4897008;29;20093;-86
2022/01/11 05:27:23;;;;;;;5.10;2.47;;;;;;;15.09;43.50;94264.44;4901778;28;20523;-86
2022/01/11 05:29:48;;;;;;;5.38;2.45;;;;;;;15.14;42.97;94259.56;4955494;28;20054;-86
2022/01/11 05:32:13;;;;;;;4.40;2.55;;;;;;;15.21;43.25;94251.00;4957107;28;20042;-88
2022/01/11 05:34:39;;;;;;;22.38;3.63;;;;;;;15.30;43.23;94256.38;4976506;28;20522;-85
2022/01/11 05:37:04;;;;;;;17.45;4.53;;;;;;;15.29;43.16;94260.31;4958782;28;20187;-84
2022/01/11 05:39:30;;;;;;;14.65;3.67;;;;;;;15.36;43.00;94257.97;4939321;28;20085;-85
2022/01/11 05:41:55;;;;;;;17.13;4.70;;;;;;;15.42;43.33;94263.50;4943036;28;20391;-86
2022/01/11 05:44:21;;;;;;;103.22;64.03;;;;;;;15.43;43.43;94260.31;4928463;28;22052;-87
2022/01/11 05:46:46;;;;;;;20.95;5.18;;;;;;;15.48;43.19;94266.31;4922877;28;20039;-87
2022/01/11 05:49:12;;;;;;;15.00;5.95;;;;;;;15.40;42.20;94260.50;4955789;28;20054;-90
2022/01/11 05:51:37;;;;;;;11.30;6.00;;;;;;;15.33;43.04;94269.81;4956594;28;20049;-88
2022/01/11 05:54:03;;;;;;;9.95;6.32;;;;;;;15.26;43.39;94278.34;4959838;28;20078;-87
2022/01/11 05:56:28;;;;;;;18.65;6.68;;;;;;;15.32;43.00;94273.00;4920369;29;20036;-89
2022/01/11 05:58:54;;;;;;;86.88;39.72;;;;;;;15.24;43.13;94266.41;4975125;28;20038;-85
2022/01/11 06:01:19;;;;;;;58.80;24.23;;;;;;;15.32;42.99;94275.72;4969529;28;20053;-86
2022/01/11 06:03:45;;;;;;;61.78;26.02;;;;;;;15.19;43.20;94276.00;4938363;28;20047;-86
2022/01/11 06:06:10;;;;;;;74.05;29.42;;;;;;;15.23;42.97;94282.00;4922303;28;20050;-86
2022/01/11 06:08:36;;;;;;;86.75;38.88;;;;;;;15.20;43.33;94288.41;4939841;28;20446;-85
2022/01/11 06:11:01;;;;;;;70.00;30.45;;;;;;;15.16;41.74;94278.91;4949264;28;20057;-84
2022/01/11 06:13:27;;;;;;;122.63;29.33;;;;;;;15.00;37.66;94291.75;4940963;28;20051;-85
2022/01/11 06:15:52;;;;;;;86.95;20.20;;;;;;;14.87;37.31;94294.00;4954196;28;20495;-85
2022/01/11 06:18:18;;;;;;;63.38;22.73;;;;;;;14.90;37.07;94293.06;4937091;28;20058;-85
2022/01/11 06:20:43;;;;;;;96.75;25.73;;;;;;;14.99;37.35;94303.09;4956106;28;20046;-84
2022/01/11 06:23:09;;;;;;;85.05;26.33;;;;;;;15.01;37.05;94309.59;4962667;28;20039;-84
2022/01/11 06:25:34;;;;;;;76.70;27.80;;;;;;;15.01;37.03;94309.59;4938870;28;20047;-87
2022/01/11 06:28:01;;;;;;;106.95;34.15;;;;;;;14.91;36.99;94321.03;4923527;28;20039;-85
2022/01/11 06:30:26;;;;;;;91.88;30.95;;;;;;;14.98;37.19;94318.69;4938224;28;20346;-85
2022/01/11 06:32:52;;;;;;;110.00;35.28;;;;;;;14.93;37.45;94326.78;4937526;28;20451;-86
2022/01/11 06:35:18;;;;;;;121.47;46.13;;;;;;;15.01;38.22;94328.66;4951332;28;20047;-85
2022/01/11 06:37:44;;;;;;;112.57;46.85;;;;;;;14.96;39.49;94331.25;4932596;28;20442;-84
2022/01/11 06:40:10;;;;;;;124.85;53.78;;;;;;;15.02;39.81;94332.88;4946329;28;20051;-83
2022/01/11 06:42:35;;;;;;;122.88;59.17;;;;;;;14.98;40.50;94332.31;4934442;28;20035;-88
2022/01/11 06:45:01;;;;;;;121.40;58.78;;;;;;;14.99;40.37;94338.50;4915694;29;20218;-89
2022/01/11 06:47:26;;;;;;;113.40;53.05;;;;;;;14.99;39.71;94339.25;4930506;28;20048;-86
2022/01/11 06:49:52;;;;;;;117.20;53.35;;;;;;;14.99;40.03;94335.78;4932749;28;20447;-89
2022/01/11 06:52:18;;;;;;;92.28;43.35;;;;;;;15.09;39.63;94348.88;4940146;28;20051;-85
2022/01/11 06:54:43;;;;;;;97.43;48.35;;;;;;;15.04;40.00;94346.03;4906586;29;20035;-85
2022/01/11 06:57:09;;;;;;;112.90;51.60;;;;;;;15.03;40.27;94345.28;4948733;28;20664;-84
2022/01/11 06:59:37;;;;;;;101.32;44.70;;;;;;;15.08;40.07;94339.19;4937655;28;20755;-87
2022/01/11 07:02:04;;;;;;;63.72;28.27;;;;;;;15.02;36.95;94343.03;4950963;28;20036;-84
2022/01/11 07:04:29;;;;;;;46.15;21.77;;;;;;;14.82;34.98;94348.31;4949658;28;20771;-86
2022/01/11 07:06:55;;;;;;;43.45;20.45;;;;;;;14.73;35.22;94352.59;4931904;28;20031;-85
2022/01/11 07:09:20;;;;;;;37.92;18.33;;;;;;;14.83;34.76;94353.28;4932000;28;20522;-88
2022/01/11 07:11:46;;;;;;;50.67;21.65;;;;;;;14.89;35.67;94351.44;4931342;28;20415;-88
2022/01/11 07:14:11;;;;;;;60.13;26.38;;;;;;;14.85;35.97;94350.09;4931279;28;20466;-86
2022/01/11 07:16:37;;;;;;;63.33;29.33;;;;;;;14.89;37.22;94356.13;4933560;28;20050;-86
2022/01/11 07:19:03;;;;;;;55.80;28.48;;;;;;;14.88;37.85;94360.06;4934598;28;20039;-87
2022/01/11 07:21:28;;;;;;;55.05;27.10;;;;;;;14.99;38.48;94363.00;4931011;28;20070;-82
2022/01/11 07:23:54;;;;;;;59.22;28.67;;;;;;;15.02;39.04;94359.34;4941885;28;20060;-84
2022/01/11 07:26:19;;;;;;;59.92;27.88;;;;;;;15.08;38.95;94360.97;4932604;28;20055;-82
2022/01/11 07:28:46;;;;;;;53.72;28.13;;;;;;;15.09;39.01;94370.66;4964103;28;20049;-83
2022/01/11 07:31:11;;;;;;;53.65;30.20;;;;;;;15.03;39.11;94367.06;4934811;28;20200;-83
2022/01/11 07:33:37;;;;;;;59.22;30.27;;;;;;;15.06;39.08;94370.81;4933828;28;20092;-83
2022/01/11 07:36:02;;;;;;;50.08;26.85;;;;;;;15.03;38.99;94366.31;4931855;28;20051;-85
2022/01/11 07:38:28;;;;;;;51.30;25.52;;;;;;;15.04;39.26;94370.53;4949164;28;20400;-85
2022/01/11 07:40:53;;;;;;;51.25;27.05;;;;;;;15.02;39.24;94368.28;4949483;28;20039;-86
2022/01/11 07:43:19;;;;;;;53.42;22.92;;;;;;;15.04;37.55;94374.00;4932849;28;20490;-87
2022/01/11 07:45:44;;;;;;;74.07;25.17;;;;;;;14.99;37.76;94365.72;4933247;28;20032;-83
2022/01/11 07:48:10;;;;;;;58.13;23.83;;;;;;;15.06;37.80;94368.09;4951090;28;20042;-83
2022/01/11 07:50:35;;;;;;;66.40;25.25;;;;;;;15.08;38.01;94377.31;4933126;28;20043;-83
2022/01/11 07:53:01;;;;;;;59.25;26.40;;;;;;;15.16;38.35;94383.13;4931321;28;20043;-82
2022/01/11 07:55:26;;;;;;;58.83;22.70;;;;;;;15.16;38.63;94385.09;4929221;28;20035;-87
2022/01/11 07:57:52;;;;;;;70.78;24.58;;;;;;;15.04;38.83;94390.34;4917993;29;20047;-88
2022/01/11 08:00:17;;;;;;;64.93;23.58;;;;;;;15.04;39.03;94397.75;4949463;28;20043;-86
2022/01/11 08:02:43;;;;;;;59.97;19.75;;;;;;;15.01;36.88;94385.06;4950510;28;20453;-87
2022/01/11 08:05:08;;;;;;;57.78;20.35;;;;;;;14.98;36.95;94391.44;4918265;28;20044;-87
2022/01/11 08:07:34;;;;;;;66.97;21.95;;;;;;;14.97;37.09;94398.09;4932632;28;20043;-87
2022/01/11 08:09:59;;;;;;;64.75;27.60;;;;;;;14.94;37.39;94402.50;4911492;29;20035;-85
2022/01/11 08:12:24;;;;;;;69.93;27.02;;;;;;;14.92;37.96;94388.63;4949074;28;20035;-85
2022/01/11 08:14:50;;;;;;;81.68;33.55;;;;;;;14.99;38.10;94401.13;4921222;29;20039;-86
2022/01/11 08:17:16;;;;;;;87.10;31.85;;;;;;;15.06;38.21;94404.25;4903481;28;20039;-85
2022/01/11 08:19:41;;;;;;;88.10;33.97;;;;;;;15.05;38.24;94400.03;4925676;28;20102;-85
2022/01/11 08:22:07;;;;;;;95.05;41.17;;;;;;;15.03;38.51;94401.72;4915922;28;20042;-88
2022/01/11 08:24:32;;;;;;;99.10;46.38;;;;;;;15.03;38.74;94410.63;4933238;28;20090;-88
2022/01/11 08:26:58;;;;;;;102.30;57.95;;;;;;;15.04;38.90;94414.84;4927907;28;20039;-87
2022/01/11 08:29:23;;;;;;;132.32;66.50;;;;;;;15.09;38.90;94416.19;4950632;28;20045;-87
2022/01/11 08:31:49;;;;;;;134.85;71.38;;;;;;;15.05;38.48;94412.88;4918563;29;20050;-85
2022/01/11 08:34:15;;;;;;;144.48;77.05;;;;;;;15.08;38.75;94417.41;4948932;28;20043;-86
2022/01/11 08:36:41;;;;;;;146.63;73.13;;;;;;;15.07;38.69;94424.81;4913362;28;20039;-88
2022/01/11 08:39:06;;;;;;;143.60;76.50;;;;;;;15.07;38.96;94426.78;4930857;28;20047;-85
2022/01/11 08:41:32;;;;;;;152.25;77.25;;;;;;;15.07;38.80;94434.97;4949855;28;20118;-86
2022/01/11 08:43:57;;;;;;;123.88;68.32;;;;;;;15.05;39.01;94442.84;4948516;28;20035;-86
2022/01/11 08:46:22;;;;;;;134.05;65.53;;;;;;;15.05;38.87;94434.66;4932710;28;20040;-84
2022/01/11 08:48:48;;;;;;;134.70;72.57;;;;;;;15.08;38.86;94437.22;4933263;29;20150;-89
2022/01/11 08:51:13;;;;;;;127.18;67.18;;;;;;;15.06;38.97;94426.03;4948299;28;20039;-88
2022/01/11 08:53:39;;;;;;;111.93;66.00;;;;;;;15.09;39.03;94437.97;4932549;29;20614;-84
2022/01/11 08:56:05;;;;;;;138.02;68.45;;;;;;;15.12;38.78;94441.75;4915854;29;20035;-85
2022/01/11 08:58:31;;;;;;;140.10;67.15;;;;;;;15.15;39.07;94444.31;4898679;28;20744;-86
2022/01/11 09:00:56;;;;;;;131.07;62.75;;;;;;;15.11;38.98;94454.63;4916210;29;20036;-85
2022/01/11 09:03:23;;;;;;;108.53;62.75;;;;;;;15.18;39.05;94453.50;4928710;28;20066;-86
2022/01/11 09:05:50;;;;;;;271.33;86.88;;;;;;;15.12;39.12;94453.41;4916049;29;20170;-84
2022/01/11 09:08:16;;;;;;;138.70;64.38;;;;;;;15.18;39.23;94448.78;4907561;29;20162;-86
2022/01/11 09:10:41;;;;;;;119.20;62.03;;;;;;;15.17;39.08;94458.19;4908122;29;20581;-83
2022/01/11 09:13:07;;;;;;;125.00;61.17;;;;;;;15.21;39.01;94460.75;4941619;28;20501;-85
2022/01/11 09:15:32;;;;;;;149.25;79.97;;;;;;;15.17;38.97;94460.91;4963790;28;20565;-86
2022/01/11 09:17:58;;;;;;;159.68;84.85;;;;;;;15.23;39.13;94458.31;4895354;29;20050;-85
2022/01/11 09:20:24;;;;;;;168.82;90.68;;;;;;;15.22;39.00;94457.53;4895153;28;20048;-86
2022/01/11 09:22:49;;;;;;;187.52;100.20;;;;;;;15.19;38.85;94461.19;4913288;29;20376;-86
2022/01/11 09:25:16;;;;;;;217.82;109.65;;;;;;;15.19;39.08;94455.75;4912644;29;20040;-86
2022/01/11 09:27:42;;;;;;;213.73;112.30;;;;;;;15.18;39.33;94458.94;4912507;28;20697;-86
2022/01/11 09:30:09;;;;;;;201.95;108.18;;;;;;;15.17;39.15;94450.00;4917940;28;20067;-87
2022/01/11 09:32:36;;;;;;;213.10;111.43;;;;;;;15.21;39.20;94452.56;4893889;29;20048;-88
2022/01/11 09:35:03;;;;;;;186.30;101.13;;;;;;;15.18;39.01;94456.22;4911560;29;20040;-85
2022/01/11 09:37:29;;;;;;;200.93;102.32;;;;;;;15.18;39.32;94451.53;4904122;29;20044;-86
2022/01/11 09:39:55;;;;;;;199.73;117.35;;;;;;;15.28;39.06;94444.06;4926475;29;20170;-87
2022/01/11 09:42:21;;;;;;;209.73;119.85;;;;;;;15.23;39.16;94452.84;4896046;29;20047;-86
2022/01/11 09:44:47;;;;;;;245.40;137.93;;;;;;;15.24;39.06;94449.66;4913288;29;20047;-88
2022/01/11 09:47:13;;;;;;;235.43;131.50;;;;;;;15.23;39.41;94450.13;4878917;29;20507;-86
2022/01/11 09:49:39;;;;;;;233.75;129.73;;;;;;;15.29;39.20;94442.84;4882248;29;20130;-86
2022/01/11 09:52:08;;;;;;;263.55;141.32;;;;;;;15.27;39.06;94431.66;4928466;29;20156;-84
2022/01/11 09:54:35;;;;;;;270.13;147.82;;;;;;;15.32;39.17;94444.63;4917417;29;20043;-84
2022/01/11 09:57:01;;;;;;;274.98;152.20;;;;;;;15.37;39.06;94446.72;4923524;29;20167;-85
2022/01/11 09:59:26;;;;;;;294.77;160.60;;;;;;;15.38;39.13;94440.78;4930369;29;20035;-85
2022/01/11 10:01:52;;;;;;;309.08;171.75;;;;;;;15.36;39.32;94439.75;4923370;29;20077;-86
2022/01/11 10:04:18;;;;;;;324.90;183.77;;;;;;;15.40;39.21;94443.03;4918489;29;20519;-86
2022/01/11 10:06:51;;;;;;;305.45;164.55;;;;;;;15.33;39.13;94433.28;4935863;29;20114;-84
2022/01/11 10:09:18;;;;;;;323.52;179.77;;;;;;;15.34;39.34;94436.75;4919221;28;20105;-86
2022/01/11 10:11:54;;;;;;;301.92;169.57;;;;;;;15.33;38.96;94430.53;4936785;29;20043;-85
2022/01/11 10:14:33;;;;;;;305.35;166.73;;;;;;;15.29;39.23;94429.97;4940926;28;20082;-85
2022/01/11 10:17:15;;;;;;;300.55;163.90;;;;;;;15.29;39.36;94435.41;4939023;29;20047;-87
2022/01/11 10:19:42;;;;;;;289.70;161.15;;;;;;;15.32;39.38;94437.22;4932821;29;20122;-86
2022/01/11 10:22:11;;;;;;;247.38;134.93;;;;;;;15.36;39.27;94440.50;4937257;28;20089;-87
2022/01/11 10:24:42;;;;;;;265.27;144.75;;;;;;;15.35;38.96;94444.47;4944657;28;20034;-87
2022/01/11 10:27:16;;;;;;;268.15;147.40;;;;;;;15.32;39.46;94439.19;4951639;28;20083;-84
2022/01/11 10:29:44;;;;;;;294.00;144.68;;;;;;;15.34;39.28;94445.69;4936441;28;20043;-86
2022/01/11 10:32:14;;;;;;;268.15;147.25;;;;;;;15.38;39.35;94450.91;4950370;28;20039;-86
2022/01/11 10:34:39;;;;;;;234.68;117.10;;;;;;;15.40;39.18;94443.03;4958188;28;20046;-85
2022/01/11 10:37:06;;;;;;;216.30;115.28;;;;;;;15.33;39.51;94449.63;4940793;28;20062;-89
2022/01/11 10:39:35;;;;;;;246.45;128.35;;;;;;;15.32;39.29;94439.94;4939080;28;20046;-87
2022/01/11 10:42:01;;;;;;;234.80;125.43;;;;;;;15.30;39.45;94442.38;4946793;28;20053;-86
2022/01/11 10:44:43;;;;;;;246.40;129.15;;;;;;;15.35;39.42;94432.81;4970970;28;20039;-86
2022/01/11 10:47:09;;;;;;;246.45;124.60;;;;;;;15.33;39.40;94437.97;4920933;29;20571;-86
2022/01/11 10:49:35;;;;;;;251.25;124.07;;;;;;;15.30;39.48;94445.09;4926192;28;20605;-83
2022/01/11 10:52:16;;;;;;;226.02;121.20;;;;;;;15.31;39.46;94435.69;4956441;28;20046;-85
2022/01/11 10:54:42;;;;;;;235.25;121.03;;;;;;;15.31;39.71;94438.44;4951967;28;20039;-86
2022/01/11 10:57:19;;;;;;;215.35;119.60;;;;;;;15.33;39.61;94440.69;4952832;28;20046;-85
2022/01/11 11:00:03;;;;;;;259.10;116.68;;;;;;;15.34;39.29;94442.94;4971755;28;20046;-86
2022/01/11 11:02:28;;;;;;;205.90;112.00;;;;;;;15.38;39.65;94445.47;4963017;28;20043;-86
2022/01/11 11:04:55;;;;;;;206.93;106.45;;;;;;;15.42;39.44;94452.25;4944957;28;20039;-86
2022/01/11 11:07:23;;;;;;;213.50;105.47;;;;;;;15.37;39.27;94450.16;4921678;28;20039;-86
2022/01/11 11:09:50;;;;;;;156.73;83.75;;;;;;;15.43;39.33;94451.03;4936376;28;20114;-85
2022/01/11 11:12:17;;;;;;;193.20;95.32;;;;;;;15.50;39.19;94449.94;4948395;28;20039;-87
2022/01/11 11:14:48;;;;;;;150.50;83.63;;;;;;;15.48;39.27;94452.38;4951307;28;20062;-84
2022/01/11 11:17:38;;;;;;;147.68;82.00;;;;;;;15.49;39.62;94450.41;4932509;28;20038;-86
2022/01/11 11:20:08;;;;;;;167.70;89.70;;;;;;;15.48;39.34;94444.19;4931384;28;20055;-85